Terminal Aerodrome Forecast
Issued by NWS Buffalo, NY

Home | Current Version | Previous Version | Text Only | Print | Product List | Glossary On
Versions: 1 2 3 4 5 6 7 8 9 10 11 12 13 14 15 16 17 18 19 20 21 22 23 24 25 26
000
FTUS41 KBUF 262300
TAFBUF
TAF
KBUF 262339Z 2700/2724 04008KT P6SM -SHSN OVC015
     FM270200 03005KT P6SM OVC025
     FM270600 VRB03KT P6SM BKN035
     FM271400 29007KT P6SM BKN040=

USA.gov is the U.S. government's official web portal to all federal, state and local government web resources and services.